Time;durP1;ratioP1;P1;durP2;ratioP2;P2;SDS_P1;SDS_P2;PMS_P1;PMS_P2;Temp;Humidity;BMP_temperature;BMP_pressure;BME280_temperature;BME280_humidity;BME280_pressure;Samples;Min_cycle;Max_cycle;Signal;HPM_P1;HPM_P2
2023/02/17 00:01:19;;;;;;;1.73;0.93;;;;;;;11.72;97.23;100676.69;5028520;28;20522;-47
2023/02/17 00:03:50;;;;;;;1.33;0.90;;;;;;;11.73;97.26;100688.59;5022319;28;20049;-46
2023/02/17 00:06:20;;;;;;;1.67;0.80;;;;;;;11.72;97.22;100693.34;5028674;28;20037;-46
2023/02/17 00:08:48;;;;;;;1.60;1.10;;;;;;;11.73;97.12;100672.75;5028312;28;20119;-46
2023/02/17 00:11:15;;;;;;;0.90;0.70;;;;;;;11.74;97.27;100684.66;5021697;28;20046;-46
2023/02/17 00:13:43;;;;;;;2.08;0.80;;;;;;;11.73;97.26;100669.19;5028291;28;20399;-44
2023/02/17 00:16:14;;;;;;;2.25;1.20;;;;;;;11.73;97.19;100667.19;5027996;28;20110;-44
2023/02/17 00:18:41;;;;;;;1.88;1.00;;;;;;;11.73;97.24;100677.50;5028573;28;20046;-45
2023/02/17 00:21:17;;;;;;;4.65;1.00;;;;;;;11.73;97.43;100660.88;5027695;28;20064;-48
2023/02/17 00:23:46;;;;;;;1.88;0.80;;;;;;;11.74;97.40;100651.38;5025152;28;20107;-48
2023/02/17 00:26:14;;;;;;;2.15;1.02;;;;;;;11.73;97.43;100655.31;5028099;28;20069;-43
2023/02/17 00:28:42;;;;;;;4.45;1.23;;;;;;;11.73;97.45;100660.88;5027075;28;20077;-43
2023/02/17 00:31:13;;;;;;;2.70;1.15;;;;;;;11.72;97.57;100656.47;5026538;28;20053;-45
2023/02/17 00:33:40;;;;;;;3.20;1.00;;;;;;;11.73;97.53;100663.66;5033269;28;20045;-44
2023/02/17 00:36:11;;;;;;;7.43;0.73;;;;;;;11.72;97.52;100662.84;5029936;28;20144;-44
2023/02/17 00:38:41;;;;;;;5.63;1.10;;;;;;;11.72;97.45;100648.16;5031399;28;20128;-48
2023/02/17 00:41:08;;;;;;;5.40;0.80;;;;;;;11.73;97.68;100652.56;5021863;28;20072;-51
2023/02/17 00:43:35;;;;;;;1.77;0.70;;;;;;;11.73;97.46;100661.66;5031777;28;20565;-44
2023/02/17 00:46:02;;;;;;;4.45;0.80;;;;;;;11.73;97.52;100664.44;5030293;28;20049;-43
2023/02/17 00:48:30;;;;;;;3.42;0.70;;;;;;;11.74;97.63;100662.47;5032047;28;20080;-44
2023/02/17 00:50:57;;;;;;;2.25;1.02;;;;;;;11.74;97.57;100654.16;5028795;28;20053;-49
2023/02/17 00:53:24;;;;;;;1.67;1.05;;;;;;;11.76;97.64;100654.59;5028119;28;20045;-45
2023/02/17 00:55:51;;;;;;;2.53;0.80;;;;;;;11.74;97.56;100652.19;5030851;28;20102;-44
2023/02/17 00:58:18;;;;;;;2.30;0.88;;;;;;;11.75;97.37;100645.47;5031469;28;20095;-44
2023/02/17 01:00:45;;;;;;;2.70;0.95;;;;;;;11.74;97.64;100646.63;5023842;28;20050;-44
2023/02/17 01:03:12;;;;;;;1.75;0.63;;;;;;;11.75;97.68;100634.38;5027524;28;20103;-44
2023/02/17 01:05:44;;;;;;;2.47;0.75;;;;;;;11.74;97.68;100624.44;5031525;28;20045;-45
2023/02/17 01:08:11;;;;;;;2.70;0.70;;;;;;;11.74;97.71;100641.09;5031236;28;20041;-46
2023/02/17 01:10:39;;;;;;;1.20;0.90;;;;;;;11.75;97.77;100661.31;5031699;28;20049;-44
2023/02/17 01:13:06;;;;;;;3.72;0.73;;;;;;;11.73;97.59;100652.56;5020914;28;20125;-44
2023/02/17 01:15:37;;;;;;;1.58;0.90;;;;;;;11.73;97.69;100647.00;5026354;28;20576;-46
2023/02/17 01:18:04;;;;;;;2.25;1.30;;;;;;;11.73;97.72;100644.22;5024217;28;20076;-44
2023/02/17 01:20:36;;;;;;;3.72;0.90;;;;;;;11.73;97.82;100635.91;5024546;28;20042;-45
2023/02/17 01:23:04;;;;;;;4.50;0.80;;;;;;;11.72;97.76;100637.06;5029724;28;20041;-44
2023/02/17 01:25:35;;;;;;;1.45;0.73;;;;;;;11.71;97.96;100640.97;5012020;28;20048;-48
2023/02/17 01:28:02;;;;;;;2.35;1.38;;;;;;;11.70;98.11;100642.97;5023595;28;20049;-44
2023/02/17 01:30:29;;;;;;;3.70;0.95;;;;;;;11.70;98.11;100617.19;5027697;28;20053;-44
2023/02/17 01:32:55;;;;;;;4.15;0.88;;;;;;;11.71;98.15;100627.13;5025873;28;20033;-44
2023/02/17 01:35:22;;;;;;;2.72;0.73;;;;;;;11.71;98.22;100638.22;5029538;28;20049;-44
2023/02/17 01:37:49;;;;;;;3.85;0.60;;;;;;;11.71;98.31;100616.84;5016818;28;20057;-45
2023/02/17 01:40:17;;;;;;;1.10;0.50;;;;;;;11.71;98.15;100621.56;5026392;28;20045;-43
2023/02/17 01:42:44;;;;;;;1.35;0.95;;;;;;;11.72;98.26;100620.41;5028215;28;20080;-44
2023/02/17 01:45:16;;;;;;;4.03;0.50;;;;;;;11.73;98.24;100630.38;5018403;28;20057;-43
2023/02/17 01:47:50;;;;;;;2.05;0.85;;;;;;;11.74;98.21;100624.44;5016742;28;20077;-45
2023/02/17 01:50:23;;;;;;;2.15;0.50;;;;;;;11.75;98.39;100608.63;5021404;28;20188;-48
2023/02/17 01:52:52;;;;;;;4.18;0.40;;;;;;;11.75;98.30;100619.72;5021903;28;20128;-44
2023/02/17 01:55:21;;;;;;;3.42;0.45;;;;;;;11.77;98.12;100609.06;5021182;28;20049;-44
2023/02/17 01:57:50;;;;;;;1.95;0.43;;;;;;;11.78;98.33;100605.13;5019402;28;20119;-44
2023/02/17 02:00:19;;;;;;;3.05;0.60;;;;;;;11.79;98.21;100610.31;5025622;28;20065;-44
2023/02/17 02:02:48;;;;;;;0.63;0.40;;;;;;;11.81;98.13;100619.06;5025750;28;20073;-46
2023/02/17 02:05:17;;;;;;;1.33;0.52;;;;;;;11.81;98.14;100605.22;5020761;28;20045;-44
2023/02/17 02:07:46;;;;;;;3.53;0.40;;;;;;;11.83;98.08;100593.78;5023156;28;20483;-46
2023/02/17 02:10:16;;;;;;;0.47;0.40;;;;;;;11.85;98.08;100599.75;5027484;28;20077;-45
2023/02/17 02:12:44;;;;;;;2.72;0.43;;;;;;;11.86;98.03;100577.19;5024763;28;20049;-45
2023/02/17 02:15:13;;;;;;;0.40;0.28;;;;;;;11.87;97.99;100586.34;5019583;28;20049;-44
2023/02/17 02:18:13;;;;;;;0.55;0.20;;;;;;;11.88;98.27;100579.63;5010826;28;20054;-51
2023/02/17 02:21:12;;;;;;;0.40;0.30;;;;;;;11.87;97.95;100553.84;5025927;28;20047;-45
2023/02/17 02:23:57;;;;;;;1.95;0.30;;;;;;;11.90;97.71;100574.53;5020484;28;20045;-44
2023/02/17 02:26:42;;;;;;;0.38;0.30;;;;;;;11.90;97.95;100567.00;5021064;28;20054;-46
2023/02/17 02:29:27;;;;;;;0.28;0.13;;;;;;;11.91;97.85;100579.72;5021801;28;20135;-44
2023/02/17 02:32:34;;;;;;;0.30;0.13;;;;;;;11.93;97.74;100537.75;5023204;28;20053;-44
2023/02/17 02:35:14;;;;;;;1.83;0.75;;;;;;;11.92;97.76;100550.00;5028271;28;20077;-44
2023/02/17 02:37:55;;;;;;;0.68;0.20;;;;;;;11.92;97.64;100555.53;5020523;28;20442;-44
2023/02/17 02:40:25;;;;;;;1.52;0.57;;;;;;;11.92;97.68;100541.69;5025574;28;20072;-47
2023/02/17 02:42:55;;;;;;;0.60;0.10;;;;;;;11.90;97.60;100519.84;5019442;28;20053;-44
2023/02/17 02:45:22;;;;;;;0.63;0.20;;;;;;;11.87;97.67;100531.66;5020238;28;20046;-45
2023/02/17 02:47:52;;;;;;;0.20;0.10;;;;;;;11.86;97.67;100521.72;5029902;28;20045;-44
2023/02/17 02:50:30;;;;;;;0.73;0.10;;;;;;;11.86;97.81;100537.59;5029519;28;20041;-44
2023/02/17 02:53:15;;;;;;;0.20;0.20;;;;;;;11.86;97.92;100527.28;5021734;28;20132;-45
2023/02/17 02:55:50;;;;;;;0.88;0.10;;;;;;;11.85;97.99;100522.09;5007514;28;20052;-47
2023/02/17 02:58:22;;;;;;;0.35;0.10;;;;;;;11.84;97.92;100514.94;5017174;28;20053;-46
2023/02/17 03:00:59;;;;;;;0.25;0.10;;;;;;;11.83;97.79;100505.00;5049112;23;20053;-45
2023/02/17 03:03:31;;;;;;;0.40;0.10;;;;;;;11.81;98.04;100524.78;5008722;28;20046;-52
2023/02/17 03:06:21;;;;;;;1.17;0.10;;;;;;;11.83;98.14;100496.69;5007693;28;20053;-47
2023/02/17 03:08:54;;;;;;;0.10;0.10;;;;;;;11.85;97.87;100497.13;5003736;28;20135;-45
2023/02/17 03:11:31;;;;;;;0.00;0.00;;;;;;;11.85;97.82;100491.59;5014637;28;20092;-46
2023/02/17 03:14:04;;;;;;;1.45;1.15;;;;;;;11.86;97.77;100491.22;5008165;28;20522;-45
2023/02/17 03:16:32;;;;;;;1.17;0.10;;;;;;;11.86;97.76;100512.63;5007233;28;20139;-44
2023/02/17 03:18:59;;;;;;;0.30;0.20;;;;;;;11.86;98.11;100498.75;5007663;28;20103;-45
2023/02/17 03:21:34;;;;;;;0.82;0.10;;;;;;;11.87;97.83;100497.56;5008096;28;20499;-47
2023/02/17 03:24:01;;;;;;;0.20;0.00;;;;;;;11.88;98.09;100485.31;5009692;28;20069;-45
2023/02/17 03:26:28;;;;;;;0.10;0.10;;;;;;;11.88;98.14;100477.81;4987760;28;20029;-44
2023/02/17 03:28:55;;;;;;;0.10;0.10;;;;;;;11.88;97.92;100482.53;4999527;28;20046;-44
2023/02/17 03:31:22;;;;;;;0.03;0.03;;;;;;;11.87;98.05;100487.28;4989521;28;20045;-47
2023/02/17 03:33:49;;;;;;;0.20;0.00;;;;;;;11.85;97.89;100453.56;4963012;28;20045;-48
2023/02/17 03:36:16;;;;;;;0.08;0.00;;;;;;;11.84;98.01;100471.34;4963880;28;20548;-50
2023/02/17 03:38:43;;;;;;;0.00;0.00;;;;;;;11.85;97.88;100486.84;4965031;28;20074;-46
2023/02/17 03:41:10;;;;;;;0.30;0.10;;;;;;;11.86;98.27;100509.84;4964499;28;20054;-51
2023/02/17 03:43:36;;;;;;;0.32;0.00;;;;;;;11.86;98.11;100515.38;4964749;28;20047;-50
2023/02/17 03:46:04;;;;;;;0.00;0.00;;;;;;;11.87;98.14;100516.97;4964978;28;20056;-46
2023/02/17 03:48:31;;;;;;;0.30;0.10;;;;;;;11.89;98.00;100504.38;4963160;28;20692;-46
2023/02/17 03:50:58;;;;;;;0.05;0.05;;;;;;;11.89;98.02;100514.66;4964206;28;21351;-47
2023/02/17 03:53:24;;;;;;;0.10;0.10;;;;;;;11.88;98.07;100513.88;4963782;28;20057;-46
2023/02/17 03:55:51;;;;;;;0.00;0.00;;;;;;;11.85;98.18;100525.69;4963728;28;20056;-46
2023/02/17 03:58:18;;;;;;;0.15;0.15;;;;;;;11.83;98.41;100535.53;4963416;28;20646;-46
2023/02/17 04:00:45;;;;;;;1.20;0.10;;;;;;;11.79;98.80;100542.94;4965927;28;20488;-48
2023/02/17 04:03:12;;;;;;;0.03;0.00;;;;;;;11.75;99.16;100539.28;4964490;28;20058;-48
2023/02/17 04:05:39;;;;;;;0.15;0.05;;;;;;;11.72;99.15;100545.53;4963089;28;20050;-49
2023/02/17 04:08:05;;;;;;;0.28;0.10;;;;;;;11.70;99.48;100539.56;4964077;28;20052;-46
2023/02/17 04:10:32;;;;;;;0.05;0.00;;;;;;;11.67;99.77;100537.47;4980275;28;20052;-49
2023/02/17 04:13:00;;;;;;;0.55;0.00;;;;;;;11.62;100.00;100564.28;5012034;28;20050;-45
2023/02/17 04:15:28;;;;;;;0.52;0.00;;;;;;;11.59;100.00;100550.34;5011010;28;20752;-48
2023/02/17 04:17:55;;;;;;;0.28;0.05;;;;;;;11.54;100.00;100545.84;5010634;28;20499;-45
2023/02/17 04:20:23;;;;;;;1.13;0.00;;;;;;;11.51;100.00;100565.19;5011248;28;20132;-45
2023/02/17 04:22:49;;;;;;;0.17;0.10;;;;;;;11.49;100.00;100571.06;5011937;28;20073;-45
2023/02/17 04:25:16;;;;;;;0.10;0.10;;;;;;;11.48;100.00;100577.78;5009117;28;20615;-45
2023/02/17 04:27:43;;;;;;;0.13;0.05;;;;;;;11.46;100.00;100599.47;5011126;28;20562;-45
2023/02/17 04:30:10;;;;;;;0.90;0.10;;;;;;;11.45;100.00;100583.22;4992512;28;20045;-46
2023/02/17 04:32:38;;;;;;;0.38;0.10;;;;;;;11.44;100.00;100582.41;5009726;28;20049;-45
2023/02/17 04:35:05;;;;;;;0.00;0.00;;;;;;;11.45;100.00;100578.50;5000092;28;20061;-44
2023/02/17 04:37:31;;;;;;;0.70;0.10;;;;;;;11.43;100.00;100580.81;5011809;28;20048;-45
2023/02/17 04:39:58;;;;;;;0.30;0.10;;;;;;;11.41;100.00;100580.34;5008828;28;20539;-44
2023/02/17 04:42:25;;;;;;;0.00;0.00;;;;;;;11.40;100.00;100595.38;5010774;28;20038;-44
2023/02/17 04:44:52;;;;;;;0.10;0.10;;;;;;;11.39;100.00;100587.41;5011132;28;20084;-48
2023/02/17 04:47:19;;;;;;;0.85;0.10;;;;;;;11.38;100.00;100591.34;5011970;28;20088;-44
2023/02/17 04:49:46;;;;;;;0.45;0.10;;;;;;;11.36;100.00;100583.38;4978738;28;20069;-46
2023/02/17 04:52:13;;;;;;;0.63;0.08;;;;;;;11.35;100.00;100587.31;5006161;28;20431;-44
2023/02/17 04:54:40;;;;;;;0.45;0.00;;;;;;;11.35;100.00;100583.75;5010294;28;20048;-45
2023/02/17 04:57:07;;;;;;;0.45;0.05;;;;;;;11.33;100.00;100586.84;5011114;28;20069;-44
2023/02/17 04:59:33;;;;;;;0.47;0.08;;;;;;;11.34;100.00;100577.38;5010035;28;20038;-45
2023/02/17 05:02:00;;;;;;;0.28;0.10;;;;;;;11.33;100.00;100575.75;5000527;28;20145;-44
2023/02/17 05:04:28;;;;;;;0.10;0.10;;;;;;;11.32;100.00;100582.50;5009483;28;20049;-44
2023/02/17 05:06:55;;;;;;;0.20;0.20;;;;;;;11.32;100.00;100584.44;5010083;28;20505;-49
2023/02/17 05:09:22;;;;;;;0.17;0.00;;;;;;;11.32;100.00;100596.34;5009699;28;20046;-44
2023/02/17 05:11:49;;;;;;;0.10;0.10;;;;;;;11.32;100.00;100595.53;5006057;28;20125;-45
2023/02/17 05:14:16;;;;;;;0.03;0.00;;;;;;;11.32;100.00;100576.94;5010533;28;20058;-47
2023/02/17 05:16:43;;;;;;;0.00;0.00;;;;;;;11.33;100.00;100595.16;5012115;28;20061;-45
2023/02/17 05:19:10;;;;;;;0.10;0.00;;;;;;;11.33;100.00;100586.84;5011481;28;20060;-44
2023/02/17 05:21:37;;;;;;;0.10;0.00;;;;;;;11.33;100.00;100603.47;5010832;28;20049;-45
2023/02/17 05:24:04;;;;;;;0.00;0.00;;;;;;;11.34;100.00;100605.09;5012163;28;20054;-47
2023/02/17 05:26:31;;;;;;;2.60;0.00;;;;;;;11.35;100.00;100595.63;5010519;28;20084;-44
2023/02/17 05:28:58;;;;;;;1.05;0.05;;;;;;;11.36;100.00;100613.06;4976618;28;20554;-45
2023/02/17 05:31:24;;;;;;;0.20;0.20;;;;;;;11.35;100.00;100626.13;5008595;28;20050;-44
2023/02/17 05:33:55;;;;;;;0.95;0.00;;;;;;;11.35;100.00;100623.34;5010687;28;20137;-47
2023/02/17 05:36:24;;;;;;;;;;;;;;;11.33;100.00;100633.97;5009319;28;20100;-45
2023/02/17 05:38:50;;;;;;;0.10;0.00;;;;;;;11.32;100.00;100617.69;5009865;28;20276;-44
2023/02/17 05:41:18;;;;;;;0.40;0.10;;;;;;;11.31;100.00;100627.16;5007491;28;20037;-44
2023/02/17 05:43:45;;;;;;;0.15;0.10;;;;;;;11.29;100.00;100630.31;5008175;28;20056;-48
2023/02/17 05:46:13;;;;;;;0.55;0.20;;;;;;;11.29;100.00;100624.75;5006069;28;20042;-45
2023/02/17 05:48:40;;;;;;;0.70;0.30;;;;;;;11.28;100.00;100639.75;5009391;28;20046;-44
2023/02/17 05:51:07;;;;;;;0.65;0.20;;;;;;;11.28;100.00;100634.22;5007875;28;20409;-50
2023/02/17 05:53:34;;;;;;;0.13;0.10;;;;;;;11.29;100.00;100640.56;5010040;28;20109;-45
2023/02/17 05:56:01;;;;;;;0.20;0.10;;;;;;;11.29;100.00;100626.72;4990586;28;20214;-45
2023/02/17 05:58:28;;;;;;;0.17;0.17;;;;;;;11.26;100.00;100622.69;5009449;28;20514;-44
2023/02/17 06:00:55;;;;;;;0.73;0.35;;;;;;;11.25;100.00;100632.16;5008021;28;20048;-44
2023/02/17 06:03:22;;;;;;;0.20;0.20;;;;;;;11.26;100.00;100631.00;5010132;28;20065;-45
2023/02/17 06:05:49;;;;;;;0.32;0.32;;;;;;;11.26;100.00;100642.09;5008325;28;20132;-44
2023/02/17 06:08:15;;;;;;;0.30;0.10;;;;;;;11.26;100.00;100624.66;5009781;28;20042;-44
2023/02/17 06:10:42;;;;;;;0.73;0.20;;;;;;;11.25;100.00;100634.91;5010929;28;20123;-46
2023/02/17 06:13:11;;;;;;;0.85;0.20;;;;;;;11.22;100.00;100641.19;5010994;28;20077;-44
2023/02/17 06:15:38;;;;;;;0.20;0.20;;;;;;;11.22;100.00;100643.97;5007540;28;20038;-44
2023/02/17 06:18:04;;;;;;;0.30;0.20;;;;;;;11.22;100.00;100662.56;5008171;28;20064;-44
2023/02/17 06:20:31;;;;;;;0.25;0.20;;;;;;;11.21;100.00;100656.19;5009009;28;20480;-44
2023/02/17 06:22:58;;;;;;;0.63;0.30;;;;;;;11.22;100.00;100668.09;5008463;28;20119;-45
2023/02/17 06:25:25;;;;;;;0.20;0.20;;;;;;;11.22;100.00;100680.00;5007816;28;20049;-44
2023/02/17 06:27:52;;;;;;;0.10;0.10;;;;;;;11.22;100.00;100691.06;5000447;28;20528;-45
2023/02/17 06:30:20;;;;;;;0.10;0.10;;;;;;;11.23;100.00;100697.41;5007789;28;20137;-44
2023/02/17 06:32:47;;;;;;;0.70;0.20;;;;;;;11.27;100.00;100703.88;5008395;28;20034;-44
2023/02/17 06:35:13;;;;;;;0.10;0.10;;;;;;;11.27;100.00;100714.97;5002678;28;20464;-47
2023/02/17 06:37:40;;;;;;;0.10;0.10;;;;;;;11.29;100.00;100707.91;5010042;28;20042;-44
2023/02/17 06:40:08;;;;;;;3.75;0.22;;;;;;;11.29;100.00;100732.84;4999827;28;20050;-44
2023/02/17 06:42:35;;;;;;;0.73;0.20;;;;;;;11.28;100.00;100734.00;5008006;28;20037;-44
2023/02/17 06:45:04;;;;;;;2.80;0.32;;;;;;;11.24;100.00;100722.00;5009841;28;20046;-44
2023/02/17 06:47:32;;;;;;;1.45;0.10;;;;;;;11.21;100.00;100750.41;5009862;28;20049;-44
2023/02/17 06:49:59;;;;;;;3.50;0.10;;;;;;;11.17;100.00;100732.88;5009670;28;20052;-45
2023/02/17 06:52:25;;;;;;;0.32;0.10;;;;;;;11.16;100.00;100739.56;5009004;28;20073;-44
2023/02/17 06:54:52;;;;;;;0.13;0.00;;;;;;;11.15;100.00;100746.25;5009327;28;20050;-46
2023/02/17 06:57:19;;;;;;;4.03;0.20;;;;;;;11.14;100.00;100755.75;5009336;28;20053;-43
2023/02/17 06:59:46;;;;;;;0.70;0.32;;;;;;;11.14;100.00;100758.53;5006668;28;20141;-45
2023/02/17 07:02:13;;;;;;;0.10;0.10;;;;;;;11.09;100.00;100769.84;4998016;28;20046;-50
2023/02/17 07:04:42;;;;;;;3.13;0.22;;;;;;;11.05;100.00;100785.53;5007503;28;20089;-44
2023/02/17 07:07:09;;;;;;;4.25;0.35;;;;;;;11.01;100.00;100773.53;5008080;28;20079;-44
2023/02/17 07:09:37;;;;;;;0.65;0.25;;;;;;;10.96;100.00;100787.63;5004540;28;20058;-45
2023/02/17 07:12:05;;;;;;;3.30;0.22;;;;;;;10.91;100.00;100787.84;5007746;28;20042;-44
2023/02/17 07:14:34;;;;;;;2.45;0.50;;;;;;;10.88;100.00;100791.31;5005247;28;20061;-44
2023/02/17 07:17:01;;;;;;;3.38;0.60;;;;;;;10.85;100.00;100797.56;4988951;28;20046;-43
2023/02/17 07:19:28;;;;;;;3.40;0.60;;;;;;;10.84;100.00;100810.59;5007889;28;20151;-47
2023/02/17 07:21:55;;;;;;;2.83;0.50;;;;;;;10.82;100.00;100817.63;5004323;28;20081;-49
2023/02/17 07:24:22;;;;;;;3.25;0.63;;;;;;;10.82;100.00;100834.25;5008623;28;20052;-45
2023/02/17 07:26:49;;;;;;;0.70;0.35;;;;;;;10.81;100.00;100840.91;5005220;28;20560;-44
2023/02/17 07:29:16;;;;;;;1.67;0.73;;;;;;;10.79;100.00;100844.03;5006314;28;20045;-48
2023/02/17 07:31:42;;;;;;;5.32;0.77;;;;;;;10.77;100.00;100854.66;4992966;28;20133;-46
2023/02/17 07:34:09;;;;;;;2.88;0.73;;;;;;;10.75;100.00;100862.50;5011507;28;20038;-44
2023/02/17 07:36:36;;;;;;;4.53;1.35;;;;;;;10.73;100.00;100877.81;4988752;28;20057;-44
2023/02/17 07:39:03;;;;;;;7.63;1.02;;;;;;;10.70;100.00;100873.78;5006593;28;20084;-44
2023/02/17 07:41:32;;;;;;;7.95;1.13;;;;;;;10.68;100.00;100887.16;5009148;28;20570;-44
2023/02/17 07:43:59;;;;;;;3.40;1.10;;;;;;;10.68;100.00;100886.34;5003638;28;20619;-50
2023/02/17 07:46:26;;;;;;;3.20;0.75;;;;;;;10.68;100.00;100886.34;5008513;28;20510;-44
2023/02/17 07:48:53;;;;;;;6.47;1.45;;;;;;;10.68;100.00;100897.44;5008534;28;20107;-48
2023/02/17 07:51:22;;;;;;;4.60;1.27;;;;;;;10.69;100.00;100887.97;4981101;28;20050;-44
2023/02/17 07:53:50;;;;;;;6.30;1.15;;;;;;;10.69;100.00;100893.53;4995912;28;20131;-48
2023/02/17 07:56:20;;;;;;;6.30;0.95;;;;;;;10.67;100.00;100906.91;5008958;28;20081;-48
2023/02/17 07:58:47;;;;;;;3.92;1.50;;;;;;;10.64;100.00;100904.81;5009230;28;20041;-44
2023/02/17 08:01:20;;;;;;;6.75;1.33;;;;;;;10.61;100.00;100908.28;4997540;28;20561;-45
2023/02/17 08:03:49;;;;;;;6.05;2.00;;;;;;;10.57;100.00;100918.38;5008632;28;20491;-44
2023/02/17 08:06:19;;;;;;;7.55;1.70;;;;;;;10.54;100.00;100919.88;5000754;28;20519;-44
2023/02/17 08:14:23;;;;;;;12.02;3.63;;;;;;;10.53;100.00;100934.06;4993385;28;20042;-45
2023/02/17 08:16:50;;;;;;;17.30;4.38;;;;;;;10.53;100.00;100942.38;5002851;28;20053;-46
2023/02/17 08:19:18;;;;;;;14.80;2.40;;;;;;;10.53;100.00;100940.44;4982334;28;20039;-49
2023/02/17 08:21:44;;;;;;;17.50;3.42;;;;;;;10.54;100.00;100942.03;5007424;28;20121;-45
2023/02/17 08:24:12;;;;;;;21.77;3.05;;;;;;;10.55;100.00;100943.66;5008212;28;20550;-45
2023/02/17 08:26:38;;;;;;;24.50;3.22;;;;;;;10.54;100.00;100958.63;5008723;28;20047;-45
2023/02/17 08:29:05;;;;;;;22.55;7.95;;;;;;;10.56;100.00;100950.00;5008627;28;20058;-45
2023/02/17 08:31:34;;;;;;;15.35;5.78;;;;;;;10.56;100.00;100972.16;4990708;28;20042;-45
2023/02/17 08:34:04;;;;;;;14.45;3.55;;;;;;;10.56;100.00;100978.50;4992881;28;20779;-45
2023/02/17 08:36:33;;;;;;;17.70;3.63;;;;;;;10.56;100.00;100977.69;4999385;28;20043;-41
2023/02/17 08:39:00;;;;;;;16.25;5.20;;;;;;;10.58;100.00;100997.53;5006931;28;20589;-45
2023/02/17 08:41:29;;;;;;;15.50;2.85;;;;;;;10.60;99.93;101000.78;4982427;28;20046;-45
2023/02/17 08:43:59;;;;;;;15.55;4.60;;;;;;;10.61;99.69;100992.13;4995198;28;20041;-45
2023/02/17 08:46:26;;;;;;;17.15;3.47;;;;;;;10.62;99.33;101015.06;5005181;28;20060;-50
2023/02/17 08:48:53;;;;;;;19.83;4.00;;;;;;;10.64;99.00;101018.34;5008311;28;20495;-45
2023/02/17 08:51:24;;;;;;;23.33;5.30;;;;;;;10.65;98.87;101026.28;5006273;28;20507;-44
2023/02/17 08:53:54;;;;;;;21.67;4.40;;;;;;;10.66;98.94;101033.47;5004356;28;20042;-45
2023/02/17 08:56:22;;;;;;;21.05;4.53;;;;;;;10.68;98.86;101046.97;5004855;28;20053;-44
2023/02/17 08:58:49;;;;;;;22.77;4.15;;;;;;;10.69;98.71;101045.81;5012405;28;20088;-46
2023/02/17 09:01:19;;;;;;;23.40;3.97;;;;;;;10.69;98.53;101045.81;5008898;28;20096;-45
2023/02/17 09:03:49;;;;;;;22.27;4.65;;;;;;;10.73;98.63;101066.13;5008353;28;20050;-44
2023/02/17 09:06:16;;;;;;;19.35;4.43;;;;;;;10.77;98.27;101087.28;5009183;28;20049;-44
2023/02/17 09:08:43;;;;;;;21.95;4.05;;;;;;;10.79;98.41;101082.22;5011907;28;20585;-45
2023/02/17 09:11:14;;;;;;;22.67;4.57;;;;;;;10.80;98.19;101096.88;5015222;28;20487;-46
2023/02/17 09:13:41;;;;;;;21.20;4.65;;;;;;;10.81;97.82;101109.56;5006300;28;20038;-45
2023/02/17 09:16:09;;;;;;;27.40;5.28;;;;;;;10.82;98.02;101108.44;4997282;28;20054;-45
2023/02/17 09:18:36;;;;;;;27.25;4.22;;;;;;;10.85;98.04;101107.75;5008279;28;20594;-45
2023/02/17 09:21:11;;;;;;;21.40;4.07;;;;;;;10.87;97.93;101116.53;5009443;28;20045;-50
2023/02/17 09:23:39;;;;;;;25.13;6.10;;;;;;;10.89;97.81;101126.13;5009864;28;20041;-45
2023/02/17 09:26:09;;;;;;;14.35;2.97;;;;;;;10.93;97.80;101138.13;5010273;28;20073;-44
2023/02/17 09:28:36;;;;;;;27.00;5.53;;;;;;;10.97;97.62;101141.88;5009817;28;20539;-45
2023/02/17 09:31:18;;;;;;;21.95;4.95;;;;;;;11.01;97.67;101159.41;5007063;28;20049;-45
2023/02/17 09:33:48;;;;;;;26.48;6.03;;;;;;;11.06;97.47;101152.88;5003271;28;20131;-44
2023/02/17 09:36:19;;;;;;;23.55;4.63;;;;;;;11.03;97.38;101150.78;5008621;28;20041;-51
2023/02/17 09:38:46;;;;;;;15.80;4.05;;;;;;;11.02;97.25;101158.28;5010497;28;20046;-48
2023/02/17 09:41:30;;;;;;;26.15;5.32;;;;;;;11.01;97.43;101166.94;4991787;28;20561;-46
2023/02/17 09:43:58;;;;;;;28.40;6.30;;;;;;;10.99;97.42;101180.31;5004883;28;20470;-45
2023/02/17 09:46:54;;;;;;;30.75;6.05;;;;;;;10.95;97.72;101182.97;5006077;28;20049;-46
2023/02/17 09:49:48;;;;;;;;;;;;;;;10.93;97.71;101192.75;5001531;28;20042;-45
2023/02/17 09:52:30;;;;;;;20.38;5.32;;;;;;;10.93;97.88;101187.22;5009667;28;20495;-45
2023/02/17 09:55:15;;;;;;;22.75;5.85;;;;;;;10.95;97.65;101194.03;5001577;28;20145;-46
2023/02/17 09:57:53;;;;;;;20.80;5.50;;;;;;;11.00;97.87;101199.38;5006304;28;20053;-45
2023/02/17 10:00:33;;;;;;;31.60;8.10;;;;;;;11.05;97.88;101197.53;5008251;28;20037;-45
2023/02/17 10:03:04;;;;;;;24.92;5.50;;;;;;;11.05;97.63;101216.94;5010161;28;20058;-45
2023/02/17 10:05:48;;;;;;;29.58;5.45;;;;;;;11.07;97.45;101212.69;5009468;28;20049;-47
2023/02/17 10:08:21;;;;;;;23.38;4.85;;;;;;;11.09;97.51;101223.44;5010056;28;20029;-45
2023/02/17 10:10:57;;;;;;;29.00;4.70;;;;;;;11.12;97.23;101231.88;5014149;28;20038;-51
2023/02/17 10:13:29;;;;;;;35.63;7.57;;;;;;;11.17;97.15;101234.47;4995025;28;20092;-47
2023/02/17 10:16:02;;;;;;;21.30;4.70;;;;;;;11.21;97.09;101234.59;4999550;28;20060;-49
2023/02/17 10:18:40;;;;;;;23.42;4.57;;;;;;;11.26;96.72;101240.75;5006433;28;20042;-47
2023/02/17 10:21:11;;;;;;;21.80;4.45;;;;;;;11.32;97.01;101247.72;4989106;28;20061;-45
2023/02/17 10:23:39;;;;;;;26.85;5.53;;;;;;;11.37;96.52;101246.69;4984729;28;20072;-48
2023/02/17 10:26:14;;;;;;;25.58;5.35;;;;;;;11.40;96.21;101246.84;5007762;28;20116;-46
2023/02/17 10:28:57;;;;;;;18.00;4.80;;;;;;;11.48;96.08;101245.13;4999632;28;20038;-50
2023/02/17 10:31:32;;;;;;;21.20;4.30;;;;;;;11.59;96.05;101244.41;5008236;28;20046;-45
2023/02/17 10:34:29;;;;;;;19.83;4.72;;;;;;;11.69;95.77;101259.00;5012617;28;20104;-45
2023/02/17 10:37:00;;;;;;;28.60;5.43;;;;;;;11.77;95.25;101264.50;4999863;28;20062;-46
2023/02/17 10:39:44;;;;;;;25.40;5.00;;;;;;;11.81;95.14;101256.31;5001049;28;20052;-45
2023/02/17 10:42:35;;;;;;;28.83;5.82;;;;;;;11.87;95.09;101266.03;5004601;28;20061;-45
2023/02/17 10:45:24;;;;;;;23.70;6.00;;;;;;;11.95;94.82;101273.44;5002504;28;20041;-48
2023/02/17 10:48:06;;;;;;;29.52;5.22;;;;;;;12.00;94.63;101276.00;5002960;28;20124;-45
2023/02/17 10:50:35;;;;;;;15.65;3.85;;;;;;;12.06;94.29;101291.31;5006675;28;20042;-46
2023/02/17 10:53:12;;;;;;;23.45;5.13;;;;;;;12.13;94.23;101286.81;5006897;28;20046;-48
2023/02/17 10:55:56;;;;;;;26.95;4.57;;;;;;;12.27;94.11;101275.41;5006896;28;20150;-48
2023/02/17 10:58:45;;;;;;;26.67;4.75;;;;;;;12.30;93.43;101288.59;4998668;28;20050;-48
2023/02/17 11:01:12;;;;;;;22.77;4.40;;;;;;;12.28;93.21;101293.69;5009098;28;20058;-45
2023/02/17 11:03:40;;;;;;;25.35;5.25;;;;;;;12.28;93.41;101292.88;4999714;28;20042;-46
2023/02/17 11:06:21;;;;;;;25.48;4.90;;;;;;;12.30;93.35;101302.47;5007150;28;20050;-48
2023/02/17 11:08:49;;;;;;;22.95;4.43;;;;;;;12.28;93.06;101315.91;4985275;28;20132;-51
2023/02/17 11:11:22;;;;;;;20.55;4.38;;;;;;;12.29;93.08;101317.50;5011126;28;20476;-46
2023/02/17 11:13:59;;;;;;;20.85;4.20;;;;;;;12.34;93.00;101317.28;4992166;28;20069;-46
2023/02/17 11:16:33;;;;;;;21.80;5.10;;;;;;;12.35;92.49;101331.97;5005496;28;20054;-47
2023/02/17 11:19:02;;;;;;;9.57;2.10;;;;;;;12.25;92.40;101340.75;5005828;28;20431;-46
2023/02/17 11:21:31;;;;;;;8.10;2.13;;;;;;;12.05;92.36;101329.34;5006967;28;20057;-45
2023/02/17 11:24:02;;;;;;;9.68;1.42;;;;;;;11.91;92.45;101350.22;4998461;28;20049;-45
2023/02/17 11:26:31;;;;;;;3.03;1.83;;;;;;;11.77;93.13;101356.03;4986436;28;20062;-46
2023/02/17 11:29:08;;;;;;;7.47;2.00;;;;;;;11.61;93.00;101380.75;5005728;28;20578;-47
2023/02/17 11:31:36;;;;;;;9.55;2.35;;;;;;;11.51;93.42;101370.06;5007353;28;20050;-48
2023/02/17 11:34:14;;;;;;;8.23;2.22;;;;;;;11.46;93.68;101367.47;5013676;28;20048;-46
2023/02/17 11:36:44;;;;;;;6.10;1.20;;;;;;;11.42;93.74;101363.75;5008644;28;20395;-47
2023/02/17 11:39:19;;;;;;;3.55;1.40;;;;;;;11.28;93.53;101354.84;5009084;28;20046;-46